Terminal Aerodrome Forecast
Issued by NWS Quad Cities IA IL

Home | Current Version | Previous Version | Text Only | Print | Product List | Glossary On
Versions: 1 2 3 4 5 6 7 8 9 10 11 12 13 14 15 16 17 18 19 20 21 22 23 24 25 26 27 28 29 30
000
FTUS43 KDVN 281755
TAFMLI
TAF
KMLI 281755Z 2818/2918 13007KT P6SM OVC120
      TEMPO 2821/2901 4SM -SHRA BR OVC040
     FM290100 14009KT 5SM -RA BR OVC040
     FM290800 17005KT 4SM -RA BR OVC030
     FM291200 VRB03KT 3SM BR SCT010 OVC020
     FM291600 VRB04KT P6SM BKN025=

USA.gov is the U.S. government's official web portal to all federal, state and local government web resources and services.